createdAt,value
2022-10-18T00:01:09.469Z,102113.33
2022-10-18T00:06:15.646Z,102123.94
2022-10-18T00:08:43.611Z,102125.35
2022-10-18T00:11:11.583Z,102127.11
2022-10-18T00:13:39.656Z,102128.86
2022-10-18T00:16:12.597Z,102128.16
2022-10-18T00:18:41.737Z,102120.95
2022-10-18T00:21:14.407Z,102116.55
2022-10-18T00:23:43.111Z,102122.35
2022-10-18T00:26:14.748Z,102119.53
2022-10-18T00:28:43.069Z,102120.41
2022-10-18T00:31:14.075Z,102122.35
2022-10-18T00:33:46.547Z,102119.89
2022-10-18T00:36:15.020Z,102116.55
2022-10-18T00:38:44.077Z,102117.98
2022-10-18T00:41:16.429Z,102123.44
2022-10-18T00:44:13.638Z,102120.62
2022-10-18T00:46:44.598Z,102117.98
2022-10-18T00:49:24.728Z,102115.18
2022-10-18T00:51:58.230Z,102109.56
2022-10-18T00:54:28.510Z,102109.77
2022-10-18T00:56:56.724Z,102107.87
2022-10-18T00:59:26.123Z,102106.66
2022-10-18T01:01:54.347Z,102102.11
2022-10-18T01:04:23.193Z,102108.48
2022-10-18T01:07:47.784Z,102108.15
2022-10-18T01:10:35.210Z,102106.33
2022-10-18T01:13:25.808Z,102102.67
2022-10-18T01:15:58.592Z,102101.48
2022-10-18T01:18:45.867Z,102103.59
2022-10-18T01:24:42.418Z,102096.07
2022-10-18T01:27:10.403Z,102092.06
2022-10-18T01:29:52.279Z,102094.86
2022-10-18T01:32:24.751Z,102093.14
2022-10-18T01:35:00.457Z,102094.89
2022-10-18T01:37:30.426Z,102093.14
2022-10-18T01:40:03.780Z,102094.56
2022-10-18T01:42:32.304Z,102095.82
2022-10-18T01:45:02.114Z,102096.19
2022-10-18T01:47:31.559Z,102090.57
2022-10-18T01:50:03.669Z,102084.42
2022-10-18T01:52:32.152Z,102081.45
2022-10-18T01:55:02.062Z,102087.11
2022-10-18T01:57:38.469Z,102088.02
2022-10-18T02:00:16.174Z,102091.58
2022-10-18T02:02:57.166Z,102094.79
2022-10-18T02:05:38.763Z,102103.63
2022-10-18T02:08:22.725Z,102104.56
2022-10-18T02:10:55.818Z,102100.39
2022-10-18T02:13:29.854Z,102099.01
2022-10-18T02:16:10.498Z,102100.63
2022-10-18T02:18:44.606Z,102106.30
2022-10-18T02:21:16.347Z,102109.10
2022-10-18T02:23:46.686Z,102109.98
2022-10-18T02:26:16.051Z,102108.59
2022-10-18T02:28:45.699Z,102107.90
2022-10-18T02:31:27.415Z,102111.77
2022-10-18T02:34:13.388Z,102115.30
2022-10-18T02:36:46.836Z,102117.95
2022-10-18T02:39:23.032Z,102102.48
2022-10-18T02:41:51.092Z,102102.84
2022-10-18T02:44:19.071Z,102101.43
2022-10-18T02:46:47.937Z,102105.29
2022-10-18T02:49:16.230Z,102105.28
2022-10-18T02:51:44.719Z,102125.67
2022-10-18T02:54:12.695Z,102135.33
2022-10-18T02:56:40.554Z,102142.88
2022-10-18T02:59:08.723Z,102139.17
2022-10-18T03:01:36.724Z,102142.70
2022-10-18T03:04:05.689Z,102139.89
2022-10-18T03:06:34.680Z,102149.02
2022-10-18T03:09:05.512Z,102144.08
2022-10-18T03:11:33.890Z,102143.88
2022-10-18T03:14:01.857Z,102148.26
2022-10-18T03:16:30.037Z,102147.00
2022-10-18T03:18:57.996Z,102144.86
2022-10-18T03:21:25.876Z,102155.04
2022-10-18T03:23:53.833Z,102152.71
2022-10-18T03:26:22.209Z,102159.21
2022-10-18T03:28:50.332Z,102165.18
2022-10-18T03:31:18.396Z,102166.05
2022-10-18T03:33:46.736Z,102159.89
2022-10-18T03:36:15.006Z,102163.05
2022-10-18T03:38:43.288Z,102164.98
2022-10-18T03:41:11.248Z,102160.73
2022-10-18T03:43:39.280Z,102153.16
2022-10-18T03:46:07.287Z,102161.42
2022-10-18T03:48:35.257Z,102165.30
2022-10-18T03:51:03.341Z,102158.61
2022-10-18T03:53:31.291Z,102157.56
2022-10-18T03:55:59.573Z,102161.25
2022-10-18T03:58:27.710Z,102159.66
2022-10-18T04:00:56.119Z,102149.30
2022-10-18T04:03:24.123Z,102154.93
2022-10-18T04:05:52.159Z,102157.05
2022-10-18T04:08:20.152Z,102161.64
2022-10-18T04:10:48.675Z,102161.65
2022-10-18T04:13:16.621Z,102167.82
2022-10-18T04:15:44.644Z,102172.21
2022-10-18T04:18:12.618Z,102183.14
2022-10-18T04:20:40.523Z,102202.88
2022-10-18T04:23:08.595Z,102198.84
2022-10-18T04:25:36.541Z,102204.48
2022-10-18T04:28:05.001Z,102205.39
2022-10-18T04:30:32.967Z,102208.04
2022-10-18T04:33:01.039Z,102193.28
2022-10-18T04:35:29.005Z,102186.08
2022-10-18T04:37:56.977Z,102183.45
2022-10-18T04:40:24.941Z,102194.52
2022-10-18T04:42:53.014Z,102178.88
2022-10-18T04:45:21.083Z,102179.23
2022-10-18T04:47:49.052Z,102188.38
2022-10-18T04:50:17.222Z,102190.14
2022-10-18T04:52:45.265Z,102180.98
2022-10-18T04:55:13.262Z,102180.84
2022-10-18T04:57:41.229Z,102182.59
2022-10-18T05:00:09.610Z,102196.48
2022-10-18T05:02:37.575Z,102202.48
2022-10-18T05:05:09.105Z,102190.70
2022-10-18T05:07:39.724Z,102190.72
2022-10-18T05:10:08.755Z,102181.59
2022-10-18T05:12:36.725Z,102189.85
2022-10-18T05:15:05.537Z,102195.99
2022-10-18T05:17:33.490Z,102202.15
2022-10-18T05:20:01.919Z,102201.08
2022-10-18T05:22:30.278Z,102221.30
2022-10-18T05:24:58.509Z,102215.33
2022-10-18T05:27:26.392Z,102222.01
2022-10-18T05:29:54.549Z,102220.26
2022-10-18T05:32:22.936Z,102220.08
2022-10-18T05:34:50.993Z,102221.31
2022-10-18T05:37:19.179Z,102223.42
2022-10-18T05:39:47.457Z,102222.91
2022-10-18T05:42:15.411Z,102221.15
2022-10-18T05:44:43.379Z,102220.45
2022-10-18T05:47:11.347Z,102222.57
2022-10-18T05:49:39.317Z,102221.52
2022-10-18T05:52:07.388Z,102223.45
2022-10-18T05:54:35.360Z,102219.05
2022-10-18T05:57:03.424Z,102224.67
2022-10-18T05:59:31.400Z,102231.88
2022-10-18T06:01:59.387Z,102228.89
2022-10-18T06:04:27.329Z,102219.91
2022-10-18T06:06:56.285Z,102211.11
2022-10-18T06:09:24.285Z,102213.23
2022-10-18T06:11:52.155Z,102220.28
2022-10-18T06:14:20.226Z,102233.64
2022-10-18T06:16:48.194Z,102233.44
2022-10-18T06:19:16.182Z,102231.14
2022-10-18T06:21:44.644Z,102237.46
2022-10-18T06:24:12.714Z,102240.45
2022-10-18T06:26:40.783Z,102243.60
2022-10-18T06:29:08.735Z,102242.71
2022-10-18T06:31:36.824Z,102239.37
2022-10-18T06:34:05.306Z,102236.55
2022-10-18T06:36:33.373Z,102238.30
2022-10-18T06:39:01.343Z,102240.73
2022-10-18T06:41:29.517Z,102241.80
2022-10-18T06:44:07.336Z,102243.54
2022-10-18T06:46:35.380Z,102240.19
2022-10-18T06:49:03.349Z,102237.35
2022-10-18T06:51:31.422Z,102241.73
2022-10-18T06:54:16.374Z,102237.86
2022-10-18T06:56:45.294Z,102245.96
2022-10-18T06:59:13.246Z,102247.52
2022-10-18T07:01:41.245Z,102248.73
2022-10-18T07:04:09.281Z,102242.73
2022-10-18T07:06:37.353Z,102237.63
2022-10-18T07:09:05.427Z,102234.96
2022-10-18T07:11:33.702Z,102240.75
2022-10-18T07:14:03.296Z,102241.61
2022-10-18T07:16:32.884Z,102241.77
2022-10-18T07:19:00.929Z,102244.76
2022-10-18T07:21:29.257Z,102240.34
2022-10-18T07:23:57.501Z,102245.95
2022-10-18T07:26:30.024Z,102252.10
2022-10-18T07:29:05.837Z,102249.63
2022-10-18T07:31:34.445Z,102255.78
2022-10-18T07:34:05.789Z,102263.85
2022-10-18T07:36:33.951Z,102271.76
2022-10-18T07:39:01.945Z,102272.09
2022-10-18T07:41:32.053Z,102274.19
2022-10-18T07:44:01.086Z,102274.19
2022-10-18T07:46:29.224Z,102272.39
2022-10-18T07:48:59.871Z,102280.48
2022-10-18T07:51:28.323Z,102281.16
2022-10-18T07:53:56.496Z,102284.67
2022-10-18T07:56:24.439Z,102279.02
2022-10-18T07:58:55.611Z,102269.48
2022-10-18T08:01:25.344Z,102283.21
2022-10-18T08:03:54.264Z,102280.38
2022-10-18T08:06:23.664Z,102275.08
2022-10-18T08:08:52.598Z,102272.94
2022-10-18T08:11:23.446Z,102264.48
2022-10-18T08:13:52.731Z,102271.69
2022-10-18T08:16:24.843Z,102263.08
2022-10-18T08:18:53.890Z,102253.91
2022-10-18T08:21:22.169Z,102260.62
2022-10-18T08:23:50.694Z,102259.56
2022-10-18T08:26:20.562Z,102265.20
2022-10-18T08:28:54.352Z,102265.20
2022-10-18T08:31:32.077Z,102260.63
2022-10-18T08:34:00.316Z,102269.77
2022-10-18T08:36:28.417Z,102271.67
2022-10-18T08:38:56.494Z,102267.43
2022-10-18T08:41:30.767Z,102268.45
2022-10-18T08:44:08.185Z,102269.33
2022-10-18T08:46:46.813Z,102265.62
2022-10-18T08:49:36.336Z,102258.73
2022-10-18T08:52:14.544Z,102248.17
2022-10-18T08:55:03.216Z,102240.39
2022-10-18T08:57:32.803Z,102242.48
2022-10-18T09:00:06.207Z,102231.87
2022-10-18T09:02:40.207Z,102231.30
2022-10-18T09:05:19.945Z,102231.61
2022-10-18T09:08:09.840Z,102234.92
2022-10-18T09:10:46.682Z,102234.89
2022-10-18T09:13:51.715Z,102232.21
2022-10-18T09:16:45.855Z,102233.61
2022-10-18T09:19:44.686Z,102238.15
2022-10-18T09:22:19.256Z,102241.30
2022-10-18T09:25:06.254Z,102241.94
2022-10-18T09:27:45.431Z,102233.05
2022-10-18T09:30:38.175Z,102234.04
2022-10-18T09:33:16.632Z,102240.16
2022-10-18T09:35:52.977Z,102243.31
2022-10-18T09:41:07.366Z,102248.68
2022-10-18T09:43:47.783Z,102247.23
2022-10-18T09:46:18.460Z,102246.69
2022-10-18T09:49:00.797Z,102239.21
2022-10-18T09:51:40.972Z,102234.95
2022-10-18T09:54:20.716Z,102229.46
2022-10-18T09:57:06.042Z,102233.84
2022-10-18T09:59:36.827Z,102226.23
2022-10-18T10:02:06.273Z,102228.13
2022-10-18T10:04:34.297Z,102229.14
2022-10-18T10:07:02.930Z,102222.39
2022-10-18T10:09:40.886Z,102207.86
2022-10-18T10:12:25.026Z,102207.83
2022-10-18T10:14:53.022Z,102206.92
2022-10-18T10:17:29.873Z,102211.25
2022-10-18T10:20:04.098Z,102215.60
2022-10-18T10:22:40.476Z,102221.71
2022-10-18T10:25:33.306Z,102227.86
2022-10-18T10:28:11.856Z,102222.55
2022-10-18T10:30:40.096Z,102213.19
2022-10-18T10:33:38.272Z,102211.00
2022-10-18T10:36:20.790Z,102214.19
2022-10-18T10:39:13.531Z,102220.52
2022-10-18T10:41:42.016Z,102211.85
2022-10-18T10:44:21.208Z,102206.83
2022-10-18T10:46:51.566Z,102203.55
2022-10-18T10:49:40.603Z,102203.45
2022-10-18T10:52:27.421Z,102195.94
2022-10-18T10:55:11.111Z,102198.15
2022-10-18T10:57:49.766Z,102195.27
2022-10-18T11:00:45.107Z,102189.92
2022-10-18T11:03:30.977Z,102187.44
2022-10-18T11:06:01.207Z,102186.55
2022-10-18T11:08:38.950Z,102184.25
2022-10-18T11:11:28.075Z,102177.91
2022-10-18T11:14:24.693Z,102181.29
2022-10-18T11:17:08.057Z,102182.63
2022-10-18T11:19:56.598Z,102177.90
2022-10-18T11:22:28.036Z,102178.85
2022-10-18T11:24:56.345Z,102173.55
2022-10-18T11:27:35.172Z,102167.36
2022-10-18T11:30:31.025Z,102167.71
2022-10-18T11:33:56.306Z,102166.67
2022-10-18T11:36:31.269Z,102164.63
2022-10-18T11:39:19.653Z,102158.78
2022-10-18T11:41:54.084Z,102158.47
2022-10-18T11:44:42.454Z,102158.65
2022-10-18T11:47:38.337Z,102157.83
2022-10-18T11:50:26.691Z,102156.34
2022-10-18T11:53:42.766Z,102153.39
2022-10-18T11:56:36.671Z,102147.63
2022-10-18T11:59:24.156Z,102145.86
2022-10-18T12:02:20.990Z,102139.34
2022-10-18T12:05:22.075Z,102130.73
2022-10-18T12:07:53.277Z,102126.15
2022-10-18T12:10:32.878Z,102126.30
2022-10-18T12:13:21.520Z,102121.52
2022-10-18T12:15:51.500Z,102122.91
2022-10-18T12:18:24.008Z,102114.41
2022-10-18T12:20:55.794Z,102110.49
2022-10-18T12:23:33.905Z,102112.06
2022-10-18T12:26:05.695Z,102107.30
2022-10-18T12:28:39.319Z,102104.99
2022-10-18T12:31:26.028Z,102097.59
2022-10-18T12:34:01.120Z,102096.94
2022-10-18T12:36:37.991Z,102097.84
2022-10-18T12:39:12.664Z,102101.77
2022-10-18T12:41:40.783Z,102104.21
2022-10-18T12:44:34.416Z,102101.94
2022-10-18T12:47:05.241Z,102097.41
2022-10-18T12:49:36.728Z,102097.04
2022-10-18T12:52:19.709Z,102096.34
2022-10-18T12:55:04.559Z,102097.10
2022-10-18T12:57:54.252Z,102086.56
2022-10-18T13:00:31.334Z,102077.44
2022-10-18T13:03:18.161Z,102081.18
2022-10-18T13:05:54.723Z,102079.48
2022-10-18T13:08:38.148Z,102074.76
2022-10-18T13:11:09.307Z,102068.26
2022-10-18T13:13:44.086Z,102069.19
2022-10-18T13:16:21.014Z,102064.11
2022-10-18T13:18:59.711Z,102060.79
2022-10-18T13:21:46.009Z,102063.52
2022-10-18T13:24:27.623Z,102063.48
2022-10-18T13:27:35.532Z,102065.77
2022-10-18T13:30:20.877Z,102073.85
2022-10-18T13:33:20.389Z,102078.77
2022-10-18T13:35:52.106Z,102076.46
2022-10-18T13:38:36.675Z,102075.48
2022-10-18T13:41:08.552Z,102079.98
2022-10-18T13:43:55.448Z,102077.75
2022-10-18T13:46:33.571Z,102079.92
2022-10-18T13:49:20.590Z,102078.03
2022-10-18T13:52:07.319Z,102075.27
2022-10-18T13:55:06.333Z,102069.02
2022-10-18T13:57:53.308Z,102069.96
2022-10-18T14:00:48.365Z,102074.75
2022-10-18T14:03:58.142Z,102076.19
2022-10-18T14:06:37.459Z,102064.10
2022-10-18T14:09:19.358Z,102048.45
2022-10-18T14:12:38.235Z,102028.61
2022-10-18T14:15:20.830Z,102034.67
2022-10-18T14:18:00.645Z,102038.73
2022-10-18T14:21:01.298Z,102036.47
2022-10-18T14:23:40.883Z,102032.85
2022-10-18T14:26:20.076Z,102028.14
2022-10-18T14:29:16.709Z,102022.71
2022-10-18T14:31:53.437Z,102024.00
2022-10-18T14:34:22.372Z,102011.69
2022-10-18T14:36:50.699Z,102007.11
2022-10-18T14:39:27.529Z,102006.23
2022-10-18T14:41:57.276Z,102005.02
2022-10-18T14:44:29.342Z,102009.79
2022-10-18T14:47:01.709Z,102014.54
2022-10-18T14:49:30.291Z,102013.48
2022-10-18T14:52:00.542Z,102011.38
2022-10-18T14:54:32.688Z,102008.92
2022-10-18T14:57:02.392Z,101996.81
2022-10-18T14:59:34.657Z,101991.73
2022-10-18T15:02:12.017Z,101998.45
2022-10-18T15:04:43.599Z,101999.89
2022-10-18T15:07:17.688Z,101999.20
2022-10-18T15:09:47.727Z,102002.74
2022-10-18T15:12:17.211Z,102008.20
2022-10-18T15:14:46.940Z,102003.30
2022-10-18T15:17:24.351Z,101994.55
2022-10-18T15:20:06.513Z,101989.14
2022-10-18T15:22:34.482Z,101991.61
2022-10-18T15:25:21.757Z,101986.33
2022-10-18T15:27:52.656Z,101982.16
2022-10-18T15:30:27.384Z,101986.60
2022-10-18T15:32:58.896Z,101985.92
2022-10-18T15:35:30.690Z,101983.84
2022-10-18T15:38:03.596Z,101986.52
2022-10-18T15:40:34.928Z,101984.61
2022-10-18T15:43:06.376Z,101976.92
2022-10-18T15:45:38.027Z,101972.04
2022-10-18T15:48:06.002Z,101972.60
2022-10-18T15:50:37.769Z,101975.44
2022-10-18T15:53:35.110Z,101979.85
2022-10-18T15:56:32.974Z,101989.04
2022-10-18T15:59:04.412Z,101996.48
2022-10-18T16:01:44.504Z,101998.77
2022-10-18T16:04:21.050Z,101997.58
2022-10-18T16:06:49.613Z,101996.02
2022-10-18T16:09:20.397Z,101998.51
2022-10-18T16:11:55.755Z,101990.80
2022-10-18T16:14:26.507Z,101990.83
2022-10-18T16:16:57.005Z,101997.70
2022-10-18T16:19:25.136Z,101993.67
2022-10-18T16:21:54.115Z,101992.10
2022-10-18T16:24:23.119Z,101992.29
2022-10-18T16:26:51.192Z,101993.17
2022-10-18T16:29:26.022Z,101991.08
2022-10-18T16:31:58.064Z,101985.48
2022-10-18T16:34:27.570Z,101984.28
2022-10-18T16:36:55.861Z,101985.36
2022-10-18T16:39:24.447Z,101992.73
2022-10-18T16:41:52.816Z,102000.81
2022-10-18T16:44:20.995Z,102002.58
2022-10-18T16:46:51.133Z,101996.98
2022-10-18T16:49:25.432Z,101994.36
2022-10-18T16:51:55.039Z,102002.11
2022-10-18T16:54:23.722Z,102006.16
2022-10-18T16:56:51.854Z,102015.30
2022-10-18T16:59:29.040Z,102014.61
2022-10-18T17:01:57.917Z,102014.10
2022-10-18T17:04:25.938Z,102019.91
2022-10-18T17:06:57.495Z,102021.14
2022-10-18T17:09:25.563Z,102023.79
2022-10-18T17:11:53.837Z,102025.19
2022-10-18T17:14:22.212Z,102026.60
2022-10-18T17:16:54.665Z,102028.36
2022-10-18T17:19:25.158Z,102021.17
2022-10-18T17:21:53.084Z,102025.39
2022-10-18T17:24:21.150Z,102028.90
2022-10-18T17:26:49.120Z,102027.33
2022-10-18T17:29:17.438Z,102027.15
2022-10-18T17:31:45.572Z,102033.11
2022-10-18T17:34:16.498Z,102034.16
2022-10-18T17:36:48.818Z,102032.77
2022-10-18T17:39:16.685Z,102033.98
2022-10-18T17:41:44.610Z,102032.94
2022-10-18T17:44:12.575Z,102035.56
2022-10-18T17:46:42.287Z,102037.84
2022-10-18T17:49:10.357Z,102036.44
2022-10-18T17:51:38.423Z,102039.94
2022-10-18T17:54:08.003Z,102040.83
2022-10-18T17:56:36.511Z,102038.90
2022-10-18T17:59:04.483Z,102031.89
2022-10-18T18:01:32.761Z,102031.19
2022-10-18T18:04:03.200Z,102032.41
2022-10-18T18:06:36.955Z,102029.79
2022-10-18T18:09:08.557Z,102027.85
2022-10-18T18:11:38.514Z,102028.90
2022-10-18T18:14:09.285Z,102027.33
2022-10-18T18:16:45.419Z,102025.40
2022-10-18T18:19:14.525Z,102020.67
2022-10-18T18:21:42.908Z,102022.77
2022-10-18T18:24:11.605Z,102013.83
2022-10-18T18:26:40.426Z,102006.30
2022-10-18T18:29:08.357Z,102008.74
2022-10-18T18:31:38.966Z,102007.70
2022-10-18T18:34:10.510Z,102011.20
2022-10-18T18:36:39.532Z,102011.55
2022-10-18T18:39:09.105Z,102014.88
2022-10-18T18:41:38.538Z,102015.05
2022-10-18T18:44:06.833Z,102009.09
2022-10-18T18:46:39.468Z,102010.67
2022-10-18T18:49:08.340Z,102008.92
2022-10-18T18:51:40.471Z,102010.67
2022-10-18T18:54:10.826Z,102006.12
2022-10-18T18:56:38.947Z,102007.87
2022-10-18T18:59:07.634Z,102002.79
2022-10-18T19:01:37.213Z,102006.82
2022-10-18T19:04:07.463Z,101999.98
2022-10-18T19:06:40.940Z,101995.95
2022-10-18T19:09:19.690Z,101992.27
2022-10-18T19:11:50.001Z,101995.58
2022-10-18T19:14:18.435Z,101994.16
2022-10-18T19:16:50.444Z,101991.70
2022-10-18T19:19:20.516Z,101991.88
2022-10-18T19:21:52.317Z,101995.91
2022-10-18T19:24:22.433Z,102002.20
2022-10-18T19:26:58.737Z,102002.55
2022-10-18T19:29:29.738Z,101997.29
2022-10-18T19:32:00.573Z,101995.89
2022-10-18T19:34:29.874Z,101996.60
2022-10-18T19:36:58.352Z,101996.77
2022-10-18T19:39:28.661Z,101992.05
2022-10-18T19:41:59.352Z,101990.11
2022-10-18T19:44:31.334Z,101993.63
2022-10-18T19:46:59.775Z,101988.71
2022-10-18T19:49:28.896Z,101989.06
2022-10-18T19:51:57.639Z,101986.79
2022-10-18T19:54:27.029Z,101989.95
2022-10-18T19:56:55.111Z,101986.61
2022-10-18T19:59:24.171Z,101990.65
2022-10-18T20:01:52.186Z,101985.39
2022-10-18T20:04:20.273Z,101975.41
2022-10-18T20:06:48.409Z,101975.41
2022-10-18T20:09:19.671Z,101972.25
2022-10-18T20:11:48.950Z,101971.73
2022-10-18T20:14:16.844Z,101974.89
2022-10-18T20:16:44.785Z,101974.19
2022-10-18T20:19:12.854Z,101973.48
2022-10-18T20:21:41.030Z,101975.59
2022-10-18T20:24:09.610Z,101972.78
2022-10-18T20:26:37.613Z,101976.64
2022-10-18T20:29:07.699Z,101969.98
2022-10-18T20:31:38.610Z,101962.63
2022-10-18T20:34:11.209Z,101960.35
2022-10-18T20:36:40.034Z,101960.00
2022-10-18T20:39:08.358Z,101958.77
2022-10-18T20:41:39.110Z,101962.63
2022-10-18T20:44:11.789Z,101959.48
2022-10-18T20:46:41.029Z,101953.86
2022-10-18T20:49:10.897Z,101950.89
2022-10-18T20:51:38.816Z,101953.34
2022-10-18T20:54:07.869Z,101947.39
2022-10-18T20:56:38.904Z,101944.05
2022-10-18T20:59:09.846Z,101938.27
2022-10-18T21:01:39.608Z,101931.45
2022-10-18T21:04:09.970Z,101938.80
2022-10-18T21:06:41.115Z,101939.32
2022-10-18T21:09:15.840Z,101939.67
2022-10-18T21:11:47.808Z,101930.56
2022-10-18T21:14:19.559Z,101933.20
2022-10-18T21:16:48.453Z,101927.05
2022-10-18T21:19:21.567Z,101928.46
2022-10-18T21:21:51.927Z,101927.76
2022-10-18T21:24:21.707Z,101943.71
2022-10-18T21:26:49.967Z,101932.32
2022-10-18T21:29:21.973Z,101926.36
2022-10-18T21:31:54.791Z,101920.58
2022-10-18T21:34:22.966Z,101921.98
2022-10-18T21:36:51.134Z,101919.88
2022-10-18T21:41:55.188Z,101915.15
2022-10-18T21:44:23.715Z,101914.96
2022-10-18T21:46:52.020Z,101910.95
2022-10-18T21:49:20.505Z,101901.14
2022-10-18T21:51:48.573Z,101899.39
2022-10-18T21:54:17.360Z,101899.20
2022-10-18T21:56:45.328Z,101901.14
2022-10-18T21:59:14.012Z,101900.09
2022-10-18T22:01:44.294Z,101898.67
2022-10-18T22:04:24.424Z,101896.77
2022-10-18T22:06:52.865Z,101897.80
2022-10-18T22:09:22.134Z,101895.89
2022-10-18T22:11:53.527Z,101891.67
2022-10-18T22:14:22.721Z,101879.77
2022-10-18T22:16:51.185Z,101875.73
2022-10-18T22:19:19.420Z,101870.30
2022-10-18T22:21:47.638Z,101867.86
2022-10-18T22:24:15.603Z,101865.05
2022-10-18T22:26:45.824Z,101871.54
2022-10-18T22:29:16.873Z,101867.86
2022-10-18T22:31:48.111Z,101858.41
2022-10-18T22:34:19.966Z,101859.80
2022-10-18T22:36:47.939Z,101857.01
2022-10-18T22:39:16.960Z,101855.08
2022-10-18T22:41:45.301Z,101849.13
2022-10-18T22:44:14.810Z,101848.43
2022-10-18T22:46:43.250Z,101847.38
2022-10-18T22:49:12.293Z,101843.17
2022-10-18T22:51:40.946Z,101843.70
2022-10-18T22:54:09.230Z,101846.33
2022-10-18T22:56:37.210Z,101838.97
2022-10-18T22:59:05.693Z,101837.05
2022-10-18T23:01:34.200Z,101834.25
2022-10-18T23:04:03.346Z,101825.31
2022-10-18T23:06:33.997Z,101813.77
2022-10-18T23:09:06.574Z,101822.86
2022-10-18T23:11:36.082Z,101822.16
2022-10-18T23:14:05.790Z,101821.29
2022-10-18T23:16:33.858Z,101821.11
2022-10-18T23:19:02.033Z,101821.81
2022-10-18T23:21:30.000Z,101816.04
2022-10-18T23:23:58.071Z,101812.88
2022-10-18T23:26:27.767Z,101813.77
2022-10-18T23:28:56.744Z,101818.14
2022-10-18T23:31:27.610Z,101821.46
2022-10-18T23:33:58.479Z,101819.54
2022-10-18T23:36:27.541Z,101818.48
2022-10-18T23:38:56.123Z,101813.75
2022-10-18T23:41:25.007Z,101823.56
2022-10-18T23:43:53.511Z,101834.94
2022-10-18T23:46:22.188Z,101852.80
2022-10-18T23:48:50.878Z,101849.48
2022-10-18T23:51:18.765Z,101850.01
2022-10-18T23:53:46.795Z,101846.33
2022-10-18T23:56:16.447Z,101850.88
2022-10-18T23:58:45.598Z,101844.58
